KDGW/DGW METAR and TAF weather

Enter ICAO airport designator
Station Type Date Time Source
KDGW METAR 2019/05/25 15:53 UTC NOAA

KDGW 251553Z AUTO 15006KT 10SM CLR 15/02 A3001 RMK AO2 SLP139 T01500022 $


Station Type Date Time Source
KDGW Decoded METAR 2019/05/25 15:53 UTC NOAA

DOUGLAS CONVERSE COUNTY, WY, United States (KDGW) 42-48N 105-23W 1499M
May 25, 2019 - 11:53 AM EDT / 2019.05.25 1553 UTC
Wind: from the SSE (150 degrees) at 7 MPH (6 KT):0
Visibility: 10 mile(s):0
Sky conditions: clear
Temperature: 59.0 F (15.0 C)
Dew Point: 36.0 F (2.2 C)
Relative Humidity: 41%
Pressure (altimeter): 30.01 in. Hg (1016 hPa)
ob: KDGW 251553Z AUTO 15006KT 10SM CLR 15/02 A3001 RMK AO2 SLP139 T01500022
cycle: 16

Station Type Date Time Source
KDGW TAF UTC NOAA

Error!

Example: see airport list